Terminal Aerodrome Forecast
Issued by NWS

Home | Current Version | Previous Version | Graphics & Text | Print | Product List | Glossary On
Versions: 1 2 3 4 5 6 7 8 9 10 11 12 13 14 15 16 17 18 19 20 21 22 23 24 25 26
000
FTUS43 KBIS 182300
TAFMOT
TAF
KMOT 182336Z 1900/1924 30015G25KT P6SM -SHRA OVC060
     FM190500 32016G24KT P6SM OVC060
     FM191000 31016G24KT P6SM SCT200
     FM191300 30018G26KT P6SM BKN045
     FM191900 32024G34KT P6SM VCSH OVC060=

USA.gov is the U.S. government's official web portal to all federal, state and local government web resources and services.